createdAt,value
2022-08-05T00:01:28.014Z,102292.06
2022-08-05T00:03:56.952Z,102296.13
2022-08-05T00:06:30.706Z,102280.00
2022-08-05T00:09:03.138Z,102289.56
2022-08-05T00:11:35.007Z,102295.66
2022-08-05T00:14:13.056Z,102289.81
2022-08-05T00:16:53.060Z,102290.28
2022-08-05T00:19:23.466Z,102297.25
2022-08-05T00:21:52.471Z,102303.03
2022-08-05T00:24:24.523Z,102305.31
2022-08-05T00:26:53.275Z,102297.75
2022-08-05T00:29:25.569Z,102301.97
2022-08-05T00:32:10.957Z,102302.88
2022-08-05T00:34:56.490Z,102306.09
2022-08-05T00:37:50.763Z,102312.72
2022-08-05T00:40:17.614Z,102297.63
2022-08-05T00:42:53.311Z,102299.81
2022-08-05T00:45:38.104Z,102294.66
2022-08-05T00:48:08.290Z,102296.81
2022-08-05T00:50:36.494Z,102298.00
2022-08-05T00:53:03.459Z,102301.34
2022-08-05T00:55:42.908Z,102306.09
2022-08-05T00:58:17.031Z,102310.84
2022-08-05T01:00:47.541Z,102303.81
2022-08-05T01:03:22.680Z,102298.81
2022-08-05T01:05:51.416Z,102302.00
2022-08-05T01:08:30.676Z,102303.16
2022-08-05T01:11:33.656Z,102305.31
2022-08-05T01:14:11.903Z,102304.94
2022-08-05T01:16:45.668Z,102311.69
2022-08-05T01:19:20.117Z,102303.25
2022-08-05T01:22:10.838Z,102311.00
2022-08-05T01:24:56.764Z,102313.16
2022-08-05T01:27:50.670Z,102310.19
2022-08-05T01:30:33.706Z,102311.34
2022-08-05T01:33:06.266Z,102313.50
2022-08-05T01:35:51.680Z,102306.34
2022-08-05T01:38:27.218Z,102318.25
2022-08-05T01:40:58.867Z,102316.69
2022-08-05T01:43:28.402Z,102316.84
2022-08-05T01:45:57.018Z,102322.75
2022-08-05T01:48:26.925Z,102319.44
2022-08-05T01:50:55.618Z,102321.44
2022-08-05T01:53:56.988Z,102318.31
2022-08-05T01:56:13.759Z,102321.03
2022-08-05T01:59:04.893Z,102320.28
2022-08-05T02:01:39.934Z,102320.44
2022-08-05T02:04:10.364Z,102321.41
2022-08-05T02:06:39.219Z,102322.59
2022-08-05T02:09:07.447Z,102322.59
2022-08-05T02:11:52.574Z,102323.88
2022-08-05T02:15:03.242Z,102321.44
2022-08-05T02:18:28.228Z,102323.75
2022-08-05T02:20:25.453Z,102321.31
2022-08-05T02:23:03.406Z,102321.72
2022-08-05T02:25:50.039Z,102322.63
2022-08-05T02:28:29.104Z,102321.19
2022-08-05T02:31:02.340Z,102318.56
2022-08-05T02:33:38.559Z,102321.44
2022-08-05T02:36:09.293Z,102318.00
2022-08-05T02:38:37.922Z,102319.16
2022-08-05T02:41:17.054Z,102323.91
2022-08-05T02:44:06.504Z,102324.91
2022-08-05T02:46:34.459Z,102338.84
2022-08-05T02:49:02.031Z,102333.63
2022-08-05T02:52:03.710Z,102332.78
2022-08-05T02:54:36.090Z,102336.38
2022-08-05T02:57:10.410Z,102329.91
2022-08-05T02:59:54.539Z,102333.63
2022-08-05T03:02:27.669Z,102327.34
2022-08-05T03:04:57.581Z,102330.06
2022-08-05T03:08:00.136Z,102339.09
2022-08-05T03:10:15.979Z,102331.78
2022-08-05T03:12:51.874Z,102329.06
2022-08-05T03:15:20.469Z,102326.63
2022-08-05T03:17:47.165Z,102323.91
2022-08-05T03:20:14.008Z,102324.00
2022-08-05T03:22:44.198Z,102323.16
2022-08-05T03:26:03.429Z,102324.00
2022-08-05T03:28:08.494Z,102327.78
2022-08-05T03:30:38.340Z,102326.88
2022-08-05T03:33:08.723Z,102326.88
2022-08-05T03:35:41.305Z,102320.00
2022-08-05T03:38:12.312Z,102329.19
2022-08-05T03:40:45.152Z,102329.19
2022-08-05T03:43:59.235Z,102332.94
2022-08-05T03:46:02.556Z,102322.03
2022-08-05T03:48:30.428Z,102331.19
2022-08-05T03:52:37.323Z,102329.75
2022-08-05T03:56:01.078Z,102327.47
2022-08-05T03:57:16.695Z,102327.47
2022-08-05T03:59:54.754Z,102329.44
2022-08-05T04:02:37.537Z,102317.69
2022-08-05T04:06:08.773Z,102320.41
2022-08-05T04:09:36.702Z,102312.38
2022-08-05T04:12:03.875Z,102319.44
2022-08-05T04:14:50.870Z,102321.28
2022-08-05T04:17:18.027Z,102318.69
2022-08-05T04:19:54.214Z,102310.50
2022-08-05T04:22:21.613Z,102319.72
2022-08-05T04:24:52.520Z,102314.38
2022-08-05T04:27:33.282Z,102314.53
2022-08-05T04:30:08.392Z,102317.38
2022-08-05T04:32:35.898Z,102316.69
2022-08-05T04:35:03.727Z,102314.81
2022-08-05T04:38:01.983Z,102311.38
2022-08-05T04:40:19.911Z,102314.81
2022-08-05T04:42:46.811Z,102314.66
2022-08-05T04:45:14.126Z,102321.00
2022-08-05T04:47:50.205Z,102323.72
2022-08-05T04:50:37.233Z,102331.75
2022-08-05T04:53:06.846Z,102326.16
2022-08-05T04:56:11.968Z,102331.47
2022-08-05T04:58:24.453Z,102332.19
2022-08-05T05:00:52.799Z,102334.78
2022-08-05T05:03:20.329Z,102335.50
2022-08-05T05:06:39.103Z,102331.78
2022-08-05T05:08:36.805Z,102334.06
2022-08-05T05:11:10.774Z,102328.19
2022-08-05T05:13:43.516Z,102338.53
2022-08-05T05:16:10.698Z,102351.03
2022-08-05T05:18:38.756Z,102349.28
2022-08-05T05:21:05.716Z,102355.75
2022-08-05T05:23:39.014Z,102349.00
2022-08-05T05:26:20.169Z,102352.84
2022-08-05T05:28:55.773Z,102351.00
2022-08-05T05:31:23.945Z,102351.00
2022-08-05T05:33:59.285Z,102353.59
2022-08-05T05:36:28.301Z,102349.00
2022-08-05T05:38:57.228Z,102354.44
2022-08-05T05:41:24.368Z,102365.34
2022-08-05T05:43:58.555Z,102366.22
2022-08-05T05:46:27.414Z,102362.47
2022-08-05T05:48:54.494Z,102365.34
2022-08-05T05:51:22.838Z,102365.19
2022-08-05T05:53:57.818Z,102361.34
2022-08-05T05:56:32.655Z,102370.09
2022-08-05T05:59:03.361Z,102361.78
2022-08-05T06:01:37.945Z,102378.72
2022-08-05T06:04:11.862Z,102374.84
2022-08-05T06:06:46.644Z,102384.59
2022-08-05T06:09:17.291Z,102385.19
2022-08-05T06:11:59.337Z,102385.75
2022-08-05T06:14:28.860Z,102391.06
2022-08-05T06:16:57.051Z,102396.53
2022-08-05T06:19:26.129Z,102397.25
2022-08-05T06:22:03.084Z,102399.69
2022-08-05T06:24:30.238Z,102406.75
2022-08-05T06:26:57.907Z,102408.19
2022-08-05T06:30:25.167Z,102415.47
2022-08-05T06:34:07.983Z,102404.72
2022-08-05T06:37:56.059Z,102411.47
2022-08-05T06:41:22.077Z,102415.38
2022-08-05T06:44:49.189Z,102421.13
2022-08-05T06:48:54.534Z,102428.59
2022-08-05T06:52:02.411Z,102444.38
2022-08-05T06:59:11.963Z,102453.75
2022-08-05T07:02:38.520Z,102450.44
2022-08-05T07:06:14.444Z,102458.31
2022-08-05T07:09:45.038Z,102463.78
2022-08-05T07:17:57.135Z,102454.59
2022-08-05T07:20:33.076Z,102453.09
2022-08-05T07:23:00.926Z,102462.56
2022-08-05T07:25:54.785Z,102468.31
2022-08-05T07:28:17.379Z,102467.53
2022-08-05T07:30:44.643Z,102461.75
2022-08-05T07:33:17.481Z,102464.88
2022-08-05T07:36:03.389Z,102459.97
2022-08-05T07:38:42.885Z,102457.78
2022-08-05T07:41:35.216Z,102461.25
2022-08-05T07:44:02.962Z,102456.56
2022-08-05T07:46:31.805Z,102464.00
2022-08-05T07:49:05.954Z,102458.94
2022-08-05T07:51:40.785Z,102463.22
2022-08-05T07:54:18.802Z,102473.09
2022-08-05T07:57:13.831Z,102476.91
2022-08-05T07:59:40.296Z,102477.00
2022-08-05T08:02:16.014Z,102472.09
2022-08-05T08:05:49.352Z,102474.41
2022-08-05T08:13:07.842Z,102489.75
2022-08-05T08:16:50.714Z,102492.66
2022-08-05T08:23:03.137Z,102478.28
2022-08-05T08:26:30.148Z,102483.53
2022-08-05T08:30:05.570Z,102488.75
2022-08-05T08:32:43.598Z,102499.16
2022-08-05T08:35:13.689Z,102488.19
2022-08-05T08:37:40.675Z,102502.94
2022-08-05T08:40:13.095Z,102504.06
2022-08-05T08:42:51.052Z,102497.66
2022-08-05T08:45:26.696Z,102501.47
2022-08-05T08:48:12.561Z,102500.13
2022-08-05T08:51:03.470Z,102509.09
2022-08-05T08:53:37.340Z,102514.66
2022-08-05T08:56:06.331Z,102515.69
2022-08-05T08:58:43.019Z,102516.41
2022-08-05T09:02:11.385Z,102511.44
2022-08-05T09:05:17.311Z,102518.81
2022-08-05T09:07:57.471Z,102516.97
2022-08-05T09:10:27.035Z,102514.03
2022-08-05T09:12:55.940Z,102510.63
2022-08-05T09:15:22.947Z,102512.00
2022-08-05T09:17:52.901Z,102505.09
2022-08-05T09:20:36.299Z,102516.69
2022-08-05T09:28:04.212Z,102515.47
2022-08-05T09:32:41.920Z,102524.66
2022-08-05T09:39:23.388Z,102514.41
2022-08-05T09:42:54.336Z,102520.59
2022-08-05T09:50:18.133Z,102530.22
2022-08-05T09:54:00.781Z,102526.31
2022-08-05T09:57:27.337Z,102524.38
2022-08-05T10:00:54.151Z,102516.97
2022-08-05T10:08:34.498Z,102529.06
2022-08-05T10:11:53.894Z,102532.22
2022-08-05T10:19:08.459Z,102545.53
2022-08-05T10:22:38.026Z,102553.13
2022-08-05T10:26:14.533Z,102550.75
2022-08-05T10:30:06.839Z,102551.97
2022-08-05T10:37:21.807Z,102572.84
2022-08-05T10:40:03.946Z,102580.06
2022-08-05T10:42:45.241Z,102573.72
2022-08-05T10:45:23.897Z,102572.16
2022-08-05T10:48:36.050Z,102595.69
2022-08-05T10:51:59.635Z,102602.88
2022-08-05T10:56:05.286Z,102601.72
2022-08-05T11:00:02.728Z,102610.69
2022-08-05T11:03:23.785Z,102611.53
2022-08-05T11:11:00.976Z,102614.63
2022-08-05T11:15:01.128Z,102611.72
2022-08-05T11:18:32.639Z,102621.28
2022-08-05T11:21:06.229Z,102617.72
2022-08-05T11:24:03.875Z,102607.91
2022-08-05T11:26:43.130Z,102604.00
2022-08-05T11:29:38.024Z,102597.41
2022-08-05T11:32:24.613Z,102599.19
2022-08-05T11:34:54.434Z,102602.28
2022-08-05T11:38:37.005Z,102608.22
2022-08-05T11:41:13.956Z,102610.97
2022-08-05T11:44:04.382Z,102602.88
2022-08-05T11:47:09.537Z,102604.47
2022-08-05T11:49:27.996Z,102601.09
2022-08-05T11:51:55.347Z,102606.63
2022-08-05T11:54:34.611Z,102608.59
2022-08-05T11:57:08.142Z,102588.72
2022-08-05T11:59:51.113Z,102591.00
2022-08-05T12:02:29.715Z,102596.94
2022-08-05T12:04:59.849Z,102591.44
2022-08-05T12:08:08.384Z,102594.44
2022-08-05T12:10:24.803Z,102585.63
2022-08-05T12:13:15.823Z,102596.47
2022-08-05T12:15:49.775Z,102588.72
2022-08-05T12:18:24.188Z,102597.28
2022-08-05T12:20:51.405Z,102592.94
2022-08-05T12:23:18.082Z,102592.06
2022-08-05T12:25:53.855Z,102593.69
2022-08-05T12:28:37.837Z,102591.75
2022-08-05T12:31:05.383Z,102598.00
2022-08-05T12:33:36.287Z,102591.72
2022-08-05T12:36:08.047Z,102605.63
2022-08-05T12:38:40.146Z,102600.66
2022-08-05T12:41:13.170Z,102605.44
2022-08-05T12:43:57.751Z,102603.91
2022-08-05T12:46:29.307Z,102612.41
2022-08-05T12:49:14.949Z,102607.75
2022-08-05T12:52:12.321Z,102608.44
2022-08-05T12:54:36.680Z,102610.72
2022-08-05T12:57:09.548Z,102609.06
2022-08-05T13:01:56.979Z,102621.53
2022-08-05T13:02:37.328Z,102629.53
2022-08-05T13:05:07.668Z,102627.66
2022-08-05T13:07:59.415Z,102637.69
2022-08-05T13:10:22.145Z,102631.91
2022-08-05T13:12:50.971Z,102632.78
2022-08-05T13:15:36.133Z,102636.47
2022-08-05T13:18:19.947Z,102636.16
2022-08-05T13:20:49.228Z,102639.34
2022-08-05T13:23:18.113Z,102640.63
2022-08-05T13:25:52.816Z,102629.94
2022-08-05T13:28:27.124Z,102631.78
2022-08-05T13:30:54.046Z,102623.69
2022-08-05T13:34:21.275Z,102620.38
2022-08-05T13:36:10.589Z,102621.00
2022-08-05T13:40:14.362Z,102623.09
2022-08-05T13:42:00.490Z,102620.88
2022-08-05T13:44:27.178Z,102626.03
2022-08-05T13:47:04.699Z,102615.78
2022-08-05T13:49:36.144Z,102617.81
2022-08-05T13:52:14.118Z,102619.53
2022-08-05T13:54:41.657Z,102614.94
2022-08-05T13:57:09.738Z,102614.34
2022-08-05T13:59:38.495Z,102615.81
2022-08-05T14:02:26.645Z,102617.53
2022-08-05T14:05:11.527Z,102618.28
2022-08-05T14:08:00.058Z,102614.94
2022-08-05T14:10:31.017Z,102625.66
2022-08-05T14:12:58.877Z,102620.38
2022-08-05T14:16:05.475Z,102620.91
2022-08-05T14:18:18.468Z,102620.00
2022-08-05T14:20:52.895Z,102610.75
2022-08-05T14:24:21.854Z,102624.81
2022-08-05T14:32:03.703Z,102624.78
2022-08-05T14:35:20.557Z,102622.78
2022-08-05T14:42:41.809Z,102633.59
2022-08-05T14:46:09.025Z,102632.94
2022-08-05T14:49:59.677Z,102644.69
2022-08-05T14:53:22.069Z,102628.66
2022-08-05T15:00:32.538Z,102643.03
2022-08-05T15:03:59.060Z,102645.09
2022-08-05T15:11:19.302Z,102636.03
2022-08-05T15:14:49.686Z,102626.09
2022-08-05T15:22:00.288Z,102630.84
2022-08-05T15:25:51.117Z,102636.00
2022-08-05T15:33:06.890Z,102652.09
2022-08-05T15:36:34.248Z,102661.84
2022-08-05T15:41:00.646Z,102654.31
2022-08-05T15:43:47.519Z,102655.25
2022-08-05T15:51:07.163Z,102640.94
2022-08-05T15:54:34.903Z,102647.25
2022-08-05T15:58:04.117Z,102648.31
2022-08-05T16:01:30.616Z,102638.31
2022-08-05T16:08:59.233Z,102670.44
2022-08-05T16:12:25.951Z,102668.47
2022-08-05T18:14:44.407Z,102698.00
2022-08-05T18:18:01.167Z,102704.63
2022-08-05T18:20:00.263Z,102712.50
2022-08-05T18:22:36.257Z,102713.53
2022-08-05T18:25:13.241Z,102719.53
2022-08-05T18:27:52.068Z,102723.09
2022-08-05T18:30:19.901Z,102717.72
2022-08-05T18:32:53.550Z,102720.19
2022-08-05T18:35:28.394Z,102720.38
2022-08-05T18:38:16.571Z,102726.72
2022-08-05T18:41:57.046Z,102730.88
2022-08-05T18:43:38.033Z,102728.22
2022-08-05T18:46:09.937Z,102725.50
2022-08-05T18:48:41.687Z,102734.34
2022-08-05T18:52:04.016Z,102728.63
2022-08-05T18:54:15.238Z,102734.63
2022-08-05T18:56:51.197Z,102748.31
2022-08-05T18:59:43.496Z,102734.97
2022-08-05T19:02:11.291Z,102738.44
2022-08-05T19:05:01.710Z,102738.53
2022-08-05T19:07:45.239Z,102745.06
2022-08-05T19:10:14.147Z,102750.69
2022-08-05T19:12:41.210Z,102754.38
2022-08-05T19:15:25.019Z,102759.47
2022-08-05T19:18:08.336Z,102760.59
2022-08-05T19:20:37.159Z,102767.25
2022-08-05T19:24:04.461Z,102759.53
2022-08-05T19:26:01.716Z,102766.69
2022-08-05T19:28:31.086Z,102761.06
2022-08-05T19:31:00.869Z,102759.91
2022-08-05T19:33:35.535Z,102759.56
2022-08-05T19:36:06.061Z,102769.13
2022-08-05T19:38:35.714Z,102768.63
2022-08-05T19:41:07.422Z,102764.50
2022-08-05T19:44:05.653Z,102769.91
2022-08-05T19:46:29.171Z,102774.59
2022-08-05T19:49:04.624Z,102777.06
2022-08-05T19:52:05.555Z,102787.13
2022-08-05T19:54:26.827Z,102787.88
2022-08-05T19:56:59.399Z,102790.00
2022-08-05T20:00:00.846Z,102795.22
2022-08-05T20:02:14.793Z,102799.41
2022-08-05T20:04:46.172Z,102804.28
2022-08-05T20:07:13.968Z,102812.25
2022-08-05T20:09:54.859Z,102814.03
2022-08-05T20:12:24.408Z,102815.63
2022-08-05T20:14:53.180Z,102817.53
2022-08-05T20:17:23.298Z,102818.94
2022-08-05T20:19:56.943Z,102818.78
2022-08-05T20:22:27.048Z,102829.66
2022-08-05T20:24:55.775Z,102830.41
2022-08-05T20:27:26.435Z,102840.44
2022-08-05T20:29:57.705Z,102843.22
2022-08-05T20:32:27.069Z,102842.88
2022-08-05T20:34:54.246Z,102845.28
2022-08-05T20:38:05.355Z,102853.06
2022-08-05T20:40:08.873Z,102853.06
2022-08-05T20:42:35.833Z,102858.75
2022-08-05T20:45:03.496Z,102871.16
2022-08-05T20:47:31.803Z,102872.38
2022-08-05T20:49:59.424Z,102878.75
2022-08-05T20:52:26.566Z,102876.88
2022-08-05T20:55:15.834Z,102874.47
2022-08-05T20:57:43.116Z,102876.16
2022-08-05T21:00:40.324Z,102881.69
2022-08-05T21:03:06.079Z,102888.06
2022-08-05T21:05:48.378Z,102888.59
2022-08-05T21:08:26.472Z,102893.91
2022-08-05T21:10:54.874Z,102893.38
2022-08-05T21:13:55.717Z,102901.13
2022-08-05T21:16:12.836Z,102894.56
2022-08-05T21:18:44.969Z,102898.69
2022-08-05T21:21:12.246Z,102909.88
2022-08-05T21:23:39.133Z,102900.75
2022-08-05T21:26:12.195Z,102907.13
2022-08-05T21:28:50.618Z,102910.53
2022-08-05T21:31:18.260Z,102908.28
2022-08-05T21:33:47.786Z,102914.44
2022-08-05T21:36:27.461Z,102907.22
2022-08-05T21:38:55.353Z,102908.38
2022-08-05T21:41:22.282Z,102918.16
2022-08-05T21:44:01.792Z,102916.75
2022-08-05T21:46:34.875Z,102912.28
2022-08-05T21:49:11.824Z,102923.06
2022-08-05T21:52:22.301Z,102922.56
2022-08-05T21:54:42.564Z,102913.38
2022-08-05T21:57:30.907Z,102921.25
2022-08-05T22:00:05.546Z,102928.44
2022-08-05T22:02:34.185Z,102925.16
2022-08-05T22:05:00.874Z,102927.22
2022-08-05T22:07:54.437Z,102929.25
2022-08-05T22:10:16.196Z,102930.75
2022-08-05T22:12:44.766Z,102935.00
2022-08-05T22:16:02.602Z,102938.41
2022-08-05T22:18:06.299Z,102939.03
2022-08-05T22:20:35.711Z,102941.44
2022-08-05T22:23:24.942Z,102949.97
2022-08-05T22:26:30.251Z,102951.31
2022-08-05T22:28:57.103Z,102954.38
2022-08-05T22:31:30.299Z,102957.47
2022-08-05T22:34:01.572Z,102959.13
2022-08-05T22:36:29.194Z,102960.47
2022-08-05T22:38:56.307Z,102958.88
2022-08-05T22:42:04.335Z,102957.63
2022-08-05T22:44:12.097Z,102959.97
2022-08-05T22:46:40.867Z,102954.81
2022-08-05T22:49:46.139Z,102961.47
2022-08-05T22:52:04.910Z,102946.50
2022-08-05T22:54:35.730Z,102958.81
2022-08-05T22:57:03.739Z,102956.66
2022-08-05T22:59:46.370Z,102949.91
2022-08-05T23:02:18.712Z,102949.50
2022-08-05T23:04:57.155Z,102952.56
2022-08-05T23:07:23.993Z,102954.75
2022-08-05T23:10:01.160Z,102956.81
2022-08-05T23:12:32.546Z,102956.38
2022-08-05T23:15:03.473Z,102965.78
2022-08-05T23:17:37.121Z,102968.00
2022-08-05T23:20:17.755Z,102970.59
2022-08-05T23:22:48.580Z,102971.28
2022-08-05T23:25:52.962Z,102975.34
2022-08-05T23:28:07.079Z,102986.22
2022-08-05T23:30:40.314Z,102984.41
2022-08-05T23:33:16.279Z,102992.06
2022-08-05T23:35:50.820Z,102997.28
2022-08-05T23:38:18.189Z,103001.06
2022-08-05T23:40:49.380Z,103006.69
2022-08-05T23:43:25.634Z,103003.25
2022-08-05T23:46:20.357Z,103003.25
2022-08-05T23:49:00.942Z,103019.69
2022-08-05T23:51:52.920Z,103020.84
2022-08-05T23:54:36.506Z,103026.94
2022-08-05T23:57:06.612Z,103026.69
2022-08-05T23:59:37.620Z,103027.25
